KPAN

Payson Airport

Payson, Arizona, USA
METAR KPAN 250515Z AUTO 20003KT 10SM CLR 19/M06 A3017 RMK AO2
Observed Flight Rules
May-25 @ 05:15 UTC (8 minutes ago) Visual Flight Rules
Wind Visibility Clouds
200° at 3 knots 10 miles
  • Clear skies
Temperatures Readings
Current 19°C / 66°F
Dewpoint -6°C / 21°F
Humidity 18%
Altimeter 30.17" Hg
Pressure 1022 hPa
Elevation 1572
METAR KPAN 250515Z AUTO 20003KT 10SM CLR 19/M06 A3017 RMK AO2
Observed Flight Rules
May-25 @ 05:15 UTC
(8 minutes ago)
VFR
Wind Visibility
200° at 3 knots 10 miles
Clouds
  • Clear skies
Temperature Dewpoint
19°C / 66°F -6°C / 21°F
Humidity Altimeter Pressure
18% 30.17" Hg 1022 hPa